Time;durP1;ratioP1;P1;durP2;ratioP2;P2;SDS_P1;SDS_P2;PMS_P1;PMS_P2;Temp;Humidity;BMP_temperature;BMP_pressure;BME280_temperature;BME280_humidity;BME280_pressure;Samples;Min_cycle;Max_cycle;Signal;HPM_P1;HPM_P2
2022/06/24 00:00:09;;;;;;;3.5;2.2;;;;;;;20.09;94.61914;934.2325;;;;
2022/06/24 00:02:46;;;;;;;3.1;2.1;;;;;;;20.06;93.63281;934.2125;;;;
2022/06/24 00:05:24;;;;;;;3.1;1.9;;;;;;;19.99;94.42285;934.1232;;;;
2022/06/24 00:08:01;;;;;;;4;1.8;;;;;;;19.97;95.07227;934.0745;;;;
2022/06/24 00:10:29;;;;;;;4.6;2.1;;;;;;;20.05;94.86816;934.1335;;;;
2022/06/24 00:13:11;;;;;;;4.9;1.7;;;;;;;19.94;94.9707;934.1323;;;;
2022/06/24 00:15:39;;;;;;;3.8;1.9;;;;;;;19.96;94.83691;934.1791;;;;
2022/06/24 00:18:18;;;;;;;3.2;1.9;;;;;;;19.95;94.98633;934.2458;;;;
2022/06/24 00:20:43;;;;;;;4.7;2;;;;;;;19.94;95.10156;934.2056;;;;
2022/06/24 00:23:11;;;;;;;2.9;1.6;;;;;;;19.85;94.90723;934.1772;;;;
2022/06/24 00:25:36;;;;;;;5.8;2.1;;;;;;;19.87;95.10938;934.2395;;;;
2022/06/24 00:28:01;;;;;;;3.7;1.8;;;;;;;19.85;95.41992;934.2296;;;;
2022/06/24 00:30:30;;;;;;;3.2;2.5;;;;;;;19.88;95.75293;934.2941;;;;
2022/06/24 00:32:56;;;;;;;2.8;2;;;;;;;19.92;95.31738;934.3066;;;;
2022/06/24 00:35:22;;;;;;;4.5;2.2;;;;;;;19.95;94.85645;934.3033;;;;
2022/06/24 00:37:49;;;;;;;4.1;2;;;;;;;19.88;94.99414;934.3694;;;;
2022/06/24 00:40:21;;;;;;;4.7;2.4;;;;;;;19.86;94.62891;934.3286;;;;
2022/06/24 00:42:46;;;;;;;4;2.3;;;;;;;19.77;94.39941;934.282;;;;
2022/06/24 00:45:20;;;;;;;2.4;1.9;;;;;;;19.77;94.47949;934.3646;;;;
2022/06/24 00:47:49;;;;;;;4.8;2.3;;;;;;;19.63;94.94043;934.3108;;;;
2022/06/24 00:50:16;;;;;;;4.1;2;;;;;;;19.56;95.37891;934.3523;;;;
2022/06/24 00:52:41;;;;;;;4;2;;;;;;;19.66;95.42383;934.4116;;;;
2022/06/24 00:55:06;;;;;;;4.7;2;;;;;;;19.7;95.91113;934.4005;;;;
2022/06/24 00:57:31;;;;;;;4.1;2;;;;;;;19.68;96.38574;934.2929;;;;
2022/06/24 01:00:00;;;;;;;5.2;1.8;;;;;;;19.64;96.57617;934.2902;;;;
2022/06/24 01:02:25;;;;;;;3.4;2.1;;;;;;;19.74;96.17773;934.2796;;;;
2022/06/24 01:04:53;;;;;;;3.1;1.8;;;;;;;19.68;95.98926;934.1959;;;;
2022/06/24 01:07:18;;;;;;;3.9;1.9;;;;;;;19.64;96.5625;934.2241;;;;
2022/06/24 01:09:46;;;;;;;4.3;1.9;;;;;;;19.72;95.70801;934.1616;;;;
2022/06/24 01:12:15;;;;;;;2.8;1.8;;;;;;;19.73;95.74219;934.1702;;;;
2022/06/24 01:14:41;;;;;;;2.6;1.8;;;;;;;19.7;95.62012;934.2173;;;;
2022/06/24 01:17:05;;;;;;;2.4;1.9;;;;;;;19.74;95.10547;934.2207;;;;
2022/06/24 01:19:35;;;;;;;4.7;1.8;;;;;;;19.71;95.55176;934.2541;;;;
2022/06/24 01:22:00;;;;;;;2.1;1.7;;;;;;;19.65;95.91113;934.2352;;;;
2022/06/24 01:24:29;;;;;;;6.1;1.8;;;;;;;19.67;94.94727;934.1989;;;;
2022/06/24 01:26:55;;;;;;;3.3;1.7;;;;;;;19.64;94.68555;934.2015;;;;
2022/06/24 01:29:20;;;;;;;1.7;1.6;;;;;;;19.63;94.32227;934.2477;;;;
2022/06/24 01:31:48;;;;;;;2.4;1.9;;;;;;;19.62;95.18457;934.2486;;;;
2022/06/24 01:34:18;;;;;;;2.5;1.8;;;;;;;19.7;95.62012;934.2706;;;;
2022/06/24 01:36:50;;;;;;;4.9;1.6;;;;;;;19.67;95.82422;934.1367;;;;
2022/06/24 01:39:19;;;;;;;2.8;1.8;;;;;;;19.6;95.76172;934.2185;;;;
2022/06/24 01:41:43;;;;;;;2.6;1.8;;;;;;;19.6;96.50781;934.2719;;;;
2022/06/24 01:44:12;;;;;;;1.5;1.4;;;;;;;19.58;96.83984;934.2928;;;;
2022/06/24 01:46:39;;;;;;;2.4;1.5;;;;;;;19.62;95.93066;934.2964;;;;
2022/06/24 01:49:11;;;;;;;4;1.9;;;;;;;19.58;96.37402;934.2168;;;;
2022/06/24 01:51:36;;;;;;;2.9;1.6;;;;;;;19.56;95.23926;934.1989;;;;
2022/06/24 01:54:06;;;;;;;3.1;2;;;;;;;19.61;95.55371;934.1811;;;;
2022/06/24 01:56:31;;;;;;;5;1.9;;;;;;;19.59;95.56152;934.168;;;;
2022/06/24 01:58:59;;;;;;;3.8;1.7;;;;;;;19.53;95.55957;934.2084;;;;
2022/06/24 02:01:24;;;;;;;2.8;1.9;;;;;;;19.56;95.98535;934.1933;;;;
2022/06/24 02:03:54;;;;;;;2.7;1.5;;;;;;;19.61;95.04102;934.1222;;;;
2022/06/24 02:06:19;;;;;;;2.1;1.7;;;;;;;19.59;95.57324;934.1242;;;;
2022/06/24 02:08:49;;;;;;;3.9;1.9;;;;;;;19.66;94.94727;934.1652;;;;
2022/06/24 02:13:39;;;;;;;3.8;1.7;;;;;;;19.61;95.42578;934.1052;;;;
2022/06/24 02:16:07;;;;;;;4.5;1.9;;;;;;;19.66;94.50293;934.028;;;;
2022/06/24 02:18:37;;;;;;;3.5;2.1;;;;;;;19.57;94.29883;934.0933;;;;
2022/06/24 02:21:05;;;;;;;5.8;1.9;;;;;;;19.56;94.70508;934.0525;;;;
2022/06/24 02:23:30;;;;;;;3.1;1.4;;;;;;;19.38;92.93945;934.0868;;;;
2022/06/24 02:26:00;;;;;;;3.4;1.7;;;;;;;19.23;91.88477;933.9953;;;;
2022/06/24 02:28:24;;;;;;;4.8;1.4;;;;;;;19.19;91.02637;933.9462;;;;
2022/06/24 02:30:54;;;;;;;2.6;1.4;;;;;;;19.26;91.68066;933.9928;;;;
2022/06/24 02:33:19;;;;;;;2.8;1.5;;;;;;;19.33;92.16113;933.9987;;;;
2022/06/24 02:35:44;;;;;;;3.3;1.3;;;;;;;19.33;91.26465;933.9252;;;;
2022/06/24 02:38:12;;;;;;;3.2;1.5;;;;;;;19.34;90.76758;933.9225;;;;
2022/06/24 02:40:49;;;;;;;2.1;1.4;;;;;;;19.39;89.86719;933.8895;;;;
2022/06/24 02:43:08;;;;;;;3.4;1.2;;;;;;;19.37;90.80566;933.9088;;;;
2022/06/24 02:45:32;;;;;;;4.3;1.7;;;;;;;19.45;90.95117;933.9105;;;;
2022/06/24 02:48:01;;;;;;;5.4;1.8;;;;;;;19.36;88.11426;933.8515;;;;
2022/06/24 02:50:26;;;;;;;3.4;1.5;;;;;;;19.49;89.67773;933.8736;;;;
2022/06/24 02:52:56;;;;;;;4.2;1.5;;;;;;;19.5;88.68945;933.8345;;;;
2022/06/24 02:55:26;;;;;;;3.7;1.7;;;;;;;19.54;88.23047;933.9249;;;;
2022/06/24 02:57:51;;;;;;;2.9;1.4;;;;;;;19.47;87.01758;933.9509;;;;
2022/06/24 03:00:20;;;;;;;3.8;1.4;;;;;;;19.46;88.22559;933.986;;;;
2022/06/24 03:02:45;;;;;;;2.5;1.5;;;;;;;19.31;90.63184;933.9419;;;;
2022/06/24 03:05:17;;;;;;;4;1.5;;;;;;;19.33;91.89355;933.9283;;;;
2022/06/24 03:07:47;;;;;;;2.1;1.4;;;;;;;19.31;92.99609;933.9637;;;;
2022/06/24 03:10:19;;;;;;;4.3;1.9;;;;;;;19.16;94.16309;933.8939;;;;
2022/06/24 03:12:50;;;;;;;1.6;1.4;;;;;;;19.18;94.26074;933.8393;;;;
2022/06/24 03:15:21;;;;;;;3.9;1.2;;;;;;;19.22;93.99023;933.8284;;;;
2022/06/24 03:17:46;;;;;;;3.6;1.3;;;;;;;19.19;93.96191;933.8259;;;;
2022/06/24 03:20:18;;;;;;;3.8;1.5;;;;;;;19.13;94.63477;933.8317;;;;
2022/06/24 03:22:51;;;;;;;7.7;1.9;;;;;;;19.18;93.97168;933.785;;;;
2022/06/24 03:25:17;;;;;;;3.4;1.6;;;;;;;19.18;94.14648;933.9037;;;;
2022/06/24 03:27:47;;;;;;;5.9;1.7;;;;;;;19.12;93.13281;933.8432;;;;
2022/06/24 03:30:19;;;;;;;4;1.6;;;;;;;19.16;92.73145;933.8494;;;;
2022/06/24 03:32:50;;;;;;;4.6;1.8;;;;;;;19.19;92.56445;933.8541;;;;
2022/06/24 03:35:19;;;;;;;2.6;1.4;;;;;;;19.16;92.6748;933.8226;;;;
2022/06/24 03:37:44;;;;;;;4.1;1.6;;;;;;;19.14;93.04199;933.8477;;;;
2022/06/24 03:40:17;;;;;;;4.6;1.7;;;;;;;19.15;93.56738;933.8456;;;;
2022/06/24 03:42:47;;;;;;;5;2;;;;;;;19.02;93.54102;933.7374;;;;
2022/06/24 03:45:20;;;;;;;5.2;1.7;;;;;;;19.13;93.0166;933.7503;;;;
2022/06/24 03:47:49;;;;;;;4.5;1.5;;;;;;;19.02;93.15625;933.8429;;;;
2022/06/24 03:50:19;;;;;;;3.5;1.6;;;;;;;18.97;93.21484;933.8347;;;;
2022/06/24 03:52:50;;;;;;;3.4;1.5;;;;;;;18.97;93.78516;933.8606;;;;
2022/06/24 03:55:19;;;;;;;3.5;1.6;;;;;;;18.98;93.6377;933.8948;;;;
2022/06/24 03:57:47;;;;;;;4.2;1.7;;;;;;;19.03;92.83301;933.9567;;;;
2022/06/24 04:02:38;;;;;;;3.3;1.9;;;;;;;19.04;91.9502;934.0742;;;;
2022/06/24 04:05:15;;;;;;;4.4;1.8;;;;;;;19.12;92.49023;934.1387;;;;
2022/06/24 04:07:48;;;;;;;3.7;1.6;;;;;;;19.15;91.29688;934.1242;;;;
2022/06/24 04:10:19;;;;;;;3.6;1.6;;;;;;;19.11;92.00977;934.0569;;;;
2022/06/24 04:12:49;;;;;;;4;1.8;;;;;;;19.08;91.75;934.1503;;;;
2022/06/24 04:15:17;;;;;;;3.3;1.6;;;;;;;19;92.03516;934.1719;;;;
2022/06/24 04:17:43;;;;;;;6.5;1.6;;;;;;;19.04;92.15918;934.2025;;;;
2022/06/24 04:20:08;;;;;;;5.3;1.4;;;;;;;19.05;91.70703;934.2346;;;;
2022/06/24 04:22:38;;;;;;;3.1;1.6;;;;;;;19.06;91.99023;934.2035;;;;
2022/06/24 04:25:17;;;;;;;3.9;2.1;;;;;;;19.17;91.74316;934.2817;;;;
2022/06/24 04:27:42;;;;;;;2.9;1.8;;;;;;;19.03;93.33301;934.2263;;;;
2022/06/24 04:30:12;;;;;;;5.6;1.7;;;;;;;19.14;92.56445;934.327;;;;
2022/06/24 04:32:37;;;;;;;4.6;1.9;;;;;;;19;92.2334;934.2969;;;;
2022/06/24 04:35:07;;;;;;;2.3;1.4;;;;;;;19.07;92.70215;934.2394;;;;
2022/06/24 04:37:37;;;;;;;5.6;1.8;;;;;;;19.13;92.14551;934.2699;;;;
2022/06/24 04:40:02;;;;;;;4.8;1.6;;;;;;;19.24;91.89941;934.2734;;;;
2022/06/24 04:42:38;;;;;;;4;1.8;;;;;;;19.16;92.29102;934.2844;;;;
2022/06/24 04:45:08;;;;;;;3.6;1.5;;;;;;;18.9;93.85352;934.3014;;;;
2022/06/24 04:47:39;;;;;;;5.3;1.5;;;;;;;19.07;93.3877;934.3616;;;;
2022/06/24 04:50:14;;;;;;;2.6;1.5;;;;;;;19.06;92.66602;934.4157;;;;
2022/06/24 04:52:49;;;;;;;3.5;1.5;;;;;;;19.07;91.70117;934.4412;;;;
2022/06/24 04:55:16;;;;;;;6.5;2.2;;;;;;;18.98;90.74902;934.4373;;;;
2022/06/24 04:57:47;;;;;;;6.7;1.8;;;;;;;18.88;91.29883;934.4531;;;;
2022/06/24 05:00:14;;;;;;;3.8;2;;;;;;;18.99;92.33398;934.5087;;;;
2022/06/24 05:02:43;;;;;;;4.6;2.1;;;;;;;19.03;91.84277;934.4941;;;;
2022/06/24 05:05:14;;;;;;;4.2;1.9;;;;;;;19.08;90.99121;934.5001;;;;
2022/06/24 05:07:40;;;;;;;4.4;2;;;;;;;19.02;91.14258;934.4783;;;;
2022/06/24 05:10:12;;;;;;;5.7;1.8;;;;;;;19.05;90.70605;934.5283;;;;
2022/06/24 05:12:45;;;;;;;4;1.9;;;;;;;19.12;89.34668;934.5222;;;;
2022/06/24 05:15:16;;;;;;;2.5;1.6;;;;;;;19.13;88.90625;934.5242;;;;
2022/06/24 05:17:45;;;;;;;4;1.9;;;;;;;19.15;88.62988;934.5222;;;;
2022/06/24 05:20:17;;;;;;;4.9;2.7;;;;;;;19.11;88.91602;934.4659;;;;
2022/06/24 05:22:47;;;;;;;4.7;2.1;;;;;;;19.14;90.45703;934.4838;;;;
2022/06/24 05:25:20;;;;;;;4.2;2;;;;;;;19.07;90.70996;934.392;;;;
2022/06/24 05:27:48;;;;;;;4.4;1.7;;;;;;;19.14;91.21387;934.4127;;;;
2022/06/24 05:30:13;;;;;;;4.6;2.1;;;;;;;19.19;92.13281;934.4659;;;;
2022/06/24 05:32:38;;;;;;;3.2;1.9;;;;;;;19.21;91.97168;934.4453;;;;
2022/06/24 05:35:07;;;;;;;5.8;1.9;;;;;;;19.31;92.18066;934.3173;;;;
2022/06/24 05:37:32;;;;;;;4.2;2;;;;;;;19.23;92.23535;934.2487;;;;
2022/06/24 05:40:04;;;;;;;5.7;1.9;;;;;;;19.1;90.41406;934.2233;;;;
2022/06/24 05:42:33;;;;;;;5;1.8;;;;;;;19.23;89.74121;934.1875;;;;
2022/06/24 05:45:04;;;;;;;2.5;1.5;;;;;;;19.44;89.63184;934.2653;;;;
2022/06/24 05:47:29;;;;;;;4.6;1.9;;;;;;;19.53;90.78125;934.2892;;;;
2022/06/24 05:49:58;;;;;;;6.3;2.1;;;;;;;19.52;91.96973;934.2894;;;;
2022/06/24 05:55:04;;;;;;;3.7;1.5;;;;;;;19.59;90.3623;934.1445;;;;
2022/06/24 05:57:15;;;;;;;2.4;1.8;;;;;;;19.71;88.50977;934.1216;;;;
2022/06/24 05:59:42;;;;;;;5.2;2.1;;;;;;;19.68;88.5625;934.1264;;;;
2022/06/24 06:02:07;;;;;;;4;1.5;;;;;;;19.65;88.89355;934.1527;;;;
2022/06/24 06:04:34;;;;;;;2.7;1.5;;;;;;;19.83;89.07129;934.1244;;;;
2022/06/24 06:06:59;;;;;;;3.4;1.7;;;;;;;20.01;86.69043;934.1863;;;;
2022/06/24 06:09:27;;;;;;;4.1;1.7;;;;;;;19.96;88.78223;934.1241;;;;
2022/06/24 06:11:52;;;;;;;3.9;2;;;;;;;19.98;86.79004;934.1873;;;;
2022/06/24 06:14:20;;;;;;;5.5;1.9;;;;;;;19.99;85.86035;934.2363;;;;
2022/06/24 06:16:56;;;;;;;5;1.9;;;;;;;19.77;87.19141;934.2273;;;;
2022/06/24 06:19:27;;;;;;;5.1;1.7;;;;;;;19.7;88.23926;934.2755;;;;
2022/06/24 06:21:59;;;;;;;4.8;1.7;;;;;;;19.75;88.56543;934.2197;;;;
2022/06/24 06:24:30;;;;;;;6.1;2;;;;;;;19.72;88.37109;934.2466;;;;
2022/06/24 06:27:00;;;;;;;3.4;1.7;;;;;;;19.76;88.81152;934.2054;;;;
2022/06/24 06:29:30;;;;;;;5.7;2.1;;;;;;;19.74;89.09961;934.152;;;;
2022/06/24 06:32:01;;;;;;;5.1;1.8;;;;;;;19.75;88.91504;934.1792;;;;
2022/06/24 06:34:32;;;;;;;4.3;1.6;;;;;;;19.7;87.54004;934.0967;;;;
2022/06/24 06:36:57;;;;;;;4.3;1.6;;;;;;;19.55;88.47852;934.0681;;;;
2022/06/24 06:39:24;;;;;;;6.4;1.9;;;;;;;19.78;88.5127;934.0314;;;;
2022/06/24 06:41:49;;;;;;;2.9;1.7;;;;;;;19.87;87.63184;934.0125;;;;
2022/06/24 06:44:18;;;;;;;6.7;2.1;;;;;;;19.94;88.46191;934.0603;;;;
2022/06/24 06:46:43;;;;;;;4.8;1.9;;;;;;;19.92;87.41992;934.0367;;;;
2022/06/24 06:49:13;;;;;;;3.2;1.8;;;;;;;19.92;87.05762;934.0561;;;;
2022/06/24 06:51:42;;;;;;;6.8;1.9;;;;;;;19.91;86.32129;934.0669;;;;
2022/06/24 06:54:11;;;;;;;5.4;1.9;;;;;;;20.02;86.22559;934.0051;;;;
2022/06/24 06:56:36;;;;;;;3.6;1.7;;;;;;;20.02;86.21582;933.9752;;;;
2022/06/24 06:59:03;;;;;;;4;1.6;;;;;;;20.23;85.06543;933.873;;;;
2022/06/24 07:01:28;;;;;;;5.8;1.7;;;;;;;20.41;82.91699;933.8323;;;;
2022/06/24 07:03:53;;;;;;;5.5;1.7;;;;;;;20.59;84.62109;933.8585;;;;
2022/06/24 07:06:26;;;;;;;3.7;1.5;;;;;;;20.69;84.16113;933.7952;;;;
2022/06/24 07:08:57;;;;;;;9.1;2.1;;;;;;;20.81;83.94922;933.7746;;;;
2022/06/24 07:11:28;;;;;;;4.8;2;;;;;;;20.99;84.94141;933.7092;;;;
2022/06/24 07:13:54;;;;;;;1.7;1.3;;;;;;;21.12;82.95508;933.7094;;;;
2022/06/24 07:16:18;;;;;;;3.4;1.6;;;;;;;21.19;79.57617;933.6613;;;;
2022/06/24 07:18:43;;;;;;;3.1;1.5;;;;;;;21.2;83.22754;933.6948;;;;
2022/06/24 07:21:09;;;;;;;5.3;1.9;;;;;;;21.35;81.73535;933.7714;;;;
2022/06/24 07:23:35;;;;;;;4.8;1.8;;;;;;;21.36;81.29199;933.8011;;;;
2022/06/24 07:26:02;;;;;;;3.5;1.5;;;;;;;21.38;78.98926;933.7549;;;;
2022/06/24 07:28:27;;;;;;;4.8;1.4;;;;;;;21.36;80.22656;933.8228;;;;
2022/06/24 07:30:55;;;;;;;4;1.9;;;;;;;21.46;81.29883;933.7463;;;;
2022/06/24 07:33:22;;;;;;;3.8;1.6;;;;;;;21.57;81.22461;933.6494;;;;
2022/06/24 07:35:50;;;;;;;3.8;1.8;;;;;;;21.54;77.68359;933.5552;;;;
2022/06/24 07:38:15;;;;;;;5.8;1.7;;;;;;;21.46;75.55078;933.5842;;;;
2022/06/24 07:40:44;;;;;;;6.5;1.8;;;;;;;21.69;77.39258;933.5081;;;;
2022/06/24 07:43:15;;;;;;;4.6;1.8;;;;;;;21.84;78.54395;933.5313;;;;
2022/06/24 07:45:45;;;;;;;4;1.6;;;;;;;22.08;76.41699;933.5299;;;;
2022/06/24 07:48:16;;;;;;;3.1;1.7;;;;;;;22.05;75.5332;933.4526;;;;
2022/06/24 07:50:48;;;;;;;4.1;1.6;;;;;;;22.23;74.32129;933.4361;;;;
2022/06/24 07:53:16;;;;;;;4.2;1.5;;;;;;;22.38;74.22949;933.3949;;;;
2022/06/24 07:58:06;;;;;;;7.8;1.7;;;;;;;22.19;77.43457;933.3685;;;;
2022/06/24 08:00:37;;;;;;;4.4;1.4;;;;;;;22.38;75.98926;933.4034;;;;
2022/06/24 08:03:02;;;;;;;3.7;1.5;;;;;;;22.74;74.2998;933.3437;;;;
2022/06/24 08:05:29;;;;;;;3.8;1.7;;;;;;;22.84;75.26758;933.3348;;;;
2022/06/24 08:07:54;;;;;;;2.5;1.5;;;;;;;23.08;71.4209;933.3363;;;;
2022/06/24 08:10:28;;;;;;;3.8;1.4;;;;;;;23.11;71.09766;933.2933;;;;
2022/06/24 08:12:57;;;;;;;3.5;1.4;;;;;;;23.1;69.54492;933.2497;;;;
2022/06/24 08:15:33;;;;;;;5.6;2.1;;;;;;;23.14;72.00586;933.2019;;;;
2022/06/24 08:18:02;;;;;;;4.9;1.6;;;;;;;23.35;71.32324;933.2726;;;;
2022/06/24 08:20:27;;;;;;;4.4;1.8;;;;;;;23.56;70.12109;933.2303;;;;
2022/06/24 08:22:57;;;;;;;7;2;;;;;;;23.49;72.68652;933.2075;;;;
2022/06/24 08:25:22;;;;;;;4.2;2;;;;;;;23.25;72.82324;933.2612;;;;
2022/06/24 08:27:51;;;;;;;6.9;1.8;;;;;;;23.66;71.24414;933.1395;;;;
2022/06/24 08:30:16;;;;;;;4.5;1.9;;;;;;;23.85;68.00293;933.1425;;;;
2022/06/24 08:32:47;;;;;;;4.7;2.1;;;;;;;23.59;67.63184;933.1445;;;;
2022/06/24 08:35:26;;;;;;;4.4;1.7;;;;;;;23.89;64.38281;933.1121;;;;
2022/06/24 08:38:04;;;;;;;5.6;1.7;;;;;;;23.87;66.69922;933.0524;;;;
2022/06/24 08:40:35;;;;;;;4.8;1.7;;;;;;;24;67.99023;933.0261;;;;
2022/06/24 08:43:02;;;;;;;4.8;2.1;;;;;;;24.17;67.80176;932.9764;;;;
2022/06/24 08:45:36;;;;;;;4.2;1.7;;;;;;;24.14;69.91895;932.9583;;;;
2022/06/24 08:48:09;;;;;;;4.4;1.5;;;;;;;25.04;63.58203;932.9359;;;;
2022/06/24 08:50:36;;;;;;;6.9;1.8;;;;;;;25.6;61.25098;932.8969;;;;
2022/06/24 08:53:06;;;;;;;5.8;1.7;;;;;;;25.73;59.54297;932.8706;;;;
2022/06/24 08:55:36;;;;;;;3.9;1.5;;;;;;;26.13;57.26465;932.8741;;;;
2022/06/24 08:58:07;;;;;;;3.3;1.6;;;;;;;25.67;58.84961;932.832;;;;
2022/06/24 09:00:37;;;;;;;4.9;1.7;;;;;;;25.96;61.40625;932.7573;;;;
2022/06/24 09:03:05;;;;;;;5.5;2.1;;;;;;;25.62;59.8125;932.6576;;;;
2022/06/24 09:05:35;;;;;;;4.7;1.8;;;;;;;25.93;60.47949;932.7219;;;;
2022/06/24 09:08:06;;;;;;;5.4;1.7;;;;;;;25.5;61.70898;932.6519;;;;
2022/06/24 09:10:38;;;;;;;4.4;1.8;;;;;;;25.23;63.52637;932.7236;;;;
2022/06/24 09:13:05;;;;;;;5.3;1.8;;;;;;;25.25;60.11523;932.6494;;;;
2022/06/24 09:15:41;;;;;;;8.4;2;;;;;;;25.37;61.99707;932.5815;;;;
2022/06/24 09:18:12;;;;;;;4;1.6;;;;;;;25.49;58.86133;932.5168;;;;
2022/06/24 09:20:43;;;;;;;6;2;;;;;;;25.37;62.22168;932.443;;;;
2022/06/24 09:23:09;;;;;;;3.3;1.5;;;;;;;25.37;58.50195;932.3614;;;;
2022/06/24 09:25:39;;;;;;;4;1.8;;;;;;;25.12;58.48145;932.2872;;;;
2022/06/24 09:28:06;;;;;;;5.6;1.8;;;;;;;25.18;57.67578;932.247;;;;
2022/06/24 09:30:34;;;;;;;5.1;2;;;;;;;25.16;59.64453;932.2054;;;;
2022/06/24 09:32:59;;;;;;;9.3;2.1;;;;;;;25.24;61.21387;932.1875;;;;
2022/06/24 09:35:29;;;;;;;4.8;2.2;;;;;;;25.62;59.48047;932.0837;;;;
2022/06/24 09:38:00;;;;;;;4;1.6;;;;;;;25.4;59.29883;932.0072;;;;
2022/06/24 09:40:25;;;;;;;5.9;1.9;;;;;;;25.71;57.31836;931.9867;;;;
2022/06/24 09:42:54;;;;;;;4.6;1.6;;;;;;;26.52;57.71875;931.9338;;;;
2022/06/24 09:45:26;;;;;;;4.5;1.8;;;;;;;26.19;55.21484;931.8459;;;;
2022/06/24 09:47:51;;;;;;;3.3;1.6;;;;;;;26.43;59.3291;931.8236;;;;
2022/06/24 09:50:25;;;;;;;5.3;2;;;;;;;27.48;55.45703;931.8053;;;;
2022/06/24 09:52:52;;;;;;;3.9;1.7;;;;;;;28.14;51.55664;931.7915;;;;
2022/06/24 09:55:17;;;;;;;4.8;2.1;;;;;;;28.75;52.77051;931.796;;;;
2022/06/24 09:57:47;;;;;;;4.5;1.9;;;;;;;28.05;51.1084;931.7751;;;;
2022/06/24 10:02:52;;;;;;;5;1.5;;;;;;;27.38;54.28223;931.7885;;;;
2022/06/24 10:05:22;;;;;;;5.7;1.6;;;;;;;26.67;53.92383;931.7582;;;;
2022/06/24 10:07:47;;;;;;;4.2;1.9;;;;;;;26.62;55.18555;931.7628;;;;
2022/06/24 10:10:18;;;;;;;2.7;1.5;;;;;;;26.86;55.87793;931.6919;;;;
2022/06/24 10:12:47;;;;;;;3.3;1.5;;;;;;;26.88;54.05566;931.6939;;;;
2022/06/24 10:15:16;;;;;;;6.3;2.1;;;;;;;27.36;54.43359;931.6227;;;;
2022/06/24 10:17:42;;;;;;;3.3;1.5;;;;;;;27.57;52.47754;931.7079;;;;
2022/06/24 10:20:07;;;;;;;6.5;2;;;;;;;27.38;51.12695;931.6217;;;;
2022/06/24 10:22:39;;;;;;;5.2;1.8;;;;;;;27.34;50.17383;931.5655;;;;
2022/06/24 10:25:04;;;;;;;7;2.1;;;;;;;26.88;52.18457;931.4968;;;;
2022/06/24 10:27:32;;;;;;;5.4;1.8;;;;;;;27.36;50.79297;931.4473;;;;
2022/06/24 10:30:02;;;;;;;9.1;2;;;;;;;27.3;52.00586;931.3837;;;;
2022/06/24 10:32:26;;;;;;;5.1;1.7;;;;;;;27.34;51.02734;931.3133;;;;
2022/06/24 10:34:51;;;;;;;3.8;1.7;;;;;;;27.27;51.81348;931.2795;;;;
2022/06/24 10:37:16;;;;;;;4.4;1.7;;;;;;;27.15;50.47168;931.1921;;;;
2022/06/24 10:39:46;;;;;;;5.7;2.2;;;;;;;27.01;51.01367;931.1838;;;;
2022/06/24 10:42:20;;;;;;;6.4;1.7;;;;;;;26.83;51.65625;931.0922;;;;
2022/06/24 10:44:43;;;;;;;5.7;2;;;;;;;26.73;53.33887;931.1753;;;;
2022/06/24 10:47:10;;;;;;;7.4;1.8;;;;;;;26.3;54.84961;931.1412;;;;
2022/06/24 10:49:35;;;;;;;5.3;1.6;;;;;;;25.85;55.16113;931.1337;;;;
2022/06/24 10:52:00;;;;;;;6.9;2.3;;;;;;;25.31;58.30566;931.155;;;;
2022/06/24 10:54:26;;;;;;;6.6;1.8;;;;;;;25.49;57.03027;931.0803;;;;
2022/06/24 10:56:51;;;;;;;3.7;1.7;;;;;;;25.31;55.15332;930.9749;;;;
2022/06/24 10:59:20;;;;;;;6.7;1.8;;;;;;;25.32;55.69727;930.9702;;;;
2022/06/24 11:01:47;;;;;;;5.8;2.1;;;;;;;24.9;56.70703;930.8425;;;;
2022/06/24 11:04:16;;;;;;;4.7;1.5;;;;;;;24.48;59.2002;930.8201;;;;
2022/06/24 11:06:45;;;;;;;3.5;1.6;;;;;;;24.66;60.46289;930.8459;;;;
2022/06/24 11:09:11;;;;;;;4.2;1.5;;;;;;;24.66;59.49609;930.8273;;;;
2022/06/24 11:11:43;;;;;;;4.6;1.8;;;;;;;24.54;57.63965;930.7693;;;;
2022/06/24 11:14:08;;;;;;;4.6;2.1;;;;;;;24.51;57.80176;930.8152;;;;
2022/06/24 11:16:35;;;;;;;5.2;2;;;;;;;24.44;59.74805;930.8035;;;;
2022/06/24 11:19:00;;;;;;;7.6;2.3;;;;;;;24.52;59.26465;930.7683;;;;
2022/06/24 11:21:25;;;;;;;5.3;2;;;;;;;24.46;58.32617;930.7177;;;;
2022/06/24 11:23:58;;;;;;;6.4;2;;;;;;;24.34;58.69824;930.5625;;;;
2022/06/24 11:26:23;;;;;;;5.5;1.9;;;;;;;24.43;59.87695;930.4821;;;;
2022/06/24 11:28:48;;;;;;;7.2;2.1;;;;;;;24.53;59.37109;930.516;;;;
2022/06/24 11:31:17;;;;;;;6.2;2;;;;;;;24.58;59.69727;930.5002;;;;
2022/06/24 11:33:41;;;;;;;5.6;1.6;;;;;;;24.53;59.04102;930.4819;;;;
2022/06/24 11:36:07;;;;;;;7.7;2.3;;;;;;;24.19;60.00879;930.4774;;;;
2022/06/24 11:38:36;;;;;;;6.2;1.9;;;;;;;24.24;58.88574;930.5422;;;;
2022/06/24 11:40:57;;;;;;;5.6;1.9;;;;;;;24.19;59.70313;930.5783;;;;
2022/06/24 11:43:27;;;;;;;4.5;2.1;;;;;;;24.04;60.75488;930.5961;;;;
2022/06/24 11:45:56;;;;;;;5.8;2.2;;;;;;;23.95;62.30859;930.5228;;;;
2022/06/24 11:48:17;;;;;;;6.7;2.2;;;;;;;23.95;62.20215;930.4205;;;;
2022/06/24 11:50:43;;;;;;;6.3;2;;;;;;;23.88;63.0752;930.433;;;;
2022/06/24 11:53:15;;;;;;;5.4;2.1;;;;;;;23.74;61.70117;930.4364;;;;
2022/06/24 11:55:40;;;;;;;6;1.8;;;;;;;23.63;61.52344;930.3469;;;;
2022/06/24 11:58:11;;;;;;;6.6;2.1;;;;;;;23.58;62.94922;930.1588;;;;
2022/06/24 12:00:42;;;;;;;8.6;2.1;;;;;;;23.55;62.45117;930.1683;;;;
2022/06/24 12:03:10;;;;;;;5.5;1.9;;;;;;;23.19;65.52832;930.106;;;;
2022/06/24 12:05:38;;;;;;;7.1;2.2;;;;;;;23.16;64.37207;930.0773;;;;
2022/06/24 12:08:04;;;;;;;6.3;2.1;;;;;;;23.16;63.16113;930.2556;;;;
2022/06/24 12:10:28;;;;;;;7;2.1;;;;;;;23.14;61.87695;930.3951;;;;
2022/06/24 12:12:59;;;;;;;6.1;2;;;;;;;23.05;62.71191;930.5776;;;;
2022/06/24 12:15:21;;;;;;;8.3;2.5;;;;;;;22.59;64.5127;930.6555;;;;
2022/06/24 12:17:46;;;;;;;6.6;2.5;;;;;;;22.37;64.32813;930.8558;;;;
2022/06/24 12:20:16;;;;;;;12;2.8;;;;;;;22.11;64.74609;930.9963;;;;
2022/06/24 12:22:46;;;;;;;5.9;2.1;;;;;;;22.14;66.10059;931.0747;;;;
2022/06/24 12:25:11;;;;;;;8;2;;;;;;;21.47;71.90039;931.2993;;;;
2022/06/24 12:27:40;;;;;;;10.9;3.2;;;;;;;20.62;78.03613;931.6489;;;;
2022/06/24 12:30:05;;;;;;;4.5;2.3;;;;;;;19.74;82.12695;931.6936;;;;
2022/06/24 12:32:34;;;;;;;4.7;2.4;;;;;;;19.03;86.98633;931.9919;;;;
2022/06/24 12:34:59;;;;;;;5.4;2.1;;;;;;;18.62;88.74609;932.1249;;;;
2022/06/24 12:37:27;;;;;;;4.3;2.1;;;;;;;18.71;89.63477;932.0936;;;;
2022/06/24 12:39:57;;;;;;;5.5;1.9;;;;;;;18.89;86.11035;932.3922;;;;
2022/06/24 12:42:24;;;;;;;4.2;1.9;;;;;;;18.82;83.43359;932.4894;;;;
2022/06/24 12:44:52;;;;;;;7.7;1.9;;;;;;;18.87;87.20117;932.5066;;;;
2022/06/24 12:52:10;;;;;;;1.8;1.1;;;;;;;19.15;85.3584;932.2896;;;;
2022/06/24 12:54:40;;;;;;;1.9;1.2;;;;;;;19.27;85.11426;932.277;;;;
2022/06/24 12:57:05;;;;;;;1.7;1.3;;;;;;;19.36;85.58496;932.1844;;;;
2022/06/24 12:59:34;;;;;;;1.9;1.2;;;;;;;19.4;84.62598;932.2029;;;;
2022/06/24 13:01:59;;;;;;;1.6;1;;;;;;;19.53;82.15625;932.2522;;;;
2022/06/24 13:04:24;;;;;;;3.3;1.4;;;;;;;19.47;86.07324;932.3915;;;;
2022/06/24 13:06:52;;;;;;;3.2;1.2;;;;;;;19.2;85.26367;932.576;;;;
2022/06/24 13:09:16;;;;;;;4.9;1.7;;;;;;;18.93;87.52734;932.5773;;;;
2022/06/24 13:11:46;;;;;;;3.4;1.5;;;;;;;18.75;88.83008;932.5109;;;;
2022/06/24 13:14:15;;;;;;;3.6;1.9;;;;;;;18.63;89.8877;932.4669;;;;
2022/06/24 13:16:45;;;;;;;4.6;2.3;;;;;;;18.83;90.84766;932.6239;;;;
2022/06/24 13:19:12;;;;;;;3.9;1.7;;;;;;;18.81;89.9707;932.5758;;;;
2022/06/24 13:21:37;;;;;;;3.7;2;;;;;;;19.42;91.99414;932.5288;;;;
2022/06/24 13:24:05;;;;;;;3.3;1.6;;;;;;;19.76;85.88477;932.5331;;;;
2022/06/24 13:26:30;;;;;;;3.9;1.3;;;;;;;19.87;88.04102;932.5369;;;;
2022/06/24 13:29:02;;;;;;;3.2;1.5;;;;;;;20.84;84.27051;932.5672;;;;
2022/06/24 13:31:27;;;;;;;2.9;1.3;;;;;;;21.68;78.9375;932.4849;;;;
2022/06/24 13:33:56;;;;;;;3.3;1.8;;;;;;;22.34;73.63672;932.508;;;;
2022/06/24 13:36:21;;;;;;;3;1.5;;;;;;;22.92;74.86035;932.4337;;;;
2022/06/24 13:38:46;;;;;;;4.9;1.9;;;;;;;22.83;73.07227;932.4747;;;;
2022/06/24 13:41:12;;;;;;;2.5;1.5;;;;;;;22.41;72.46289;932.5115;;;;
2022/06/24 13:43:39;;;;;;;2.2;1.5;;;;;;;22.22;73.14746;932.5199;;;;
2022/06/24 13:46:05;;;;;;;3.3;1.8;;;;;;;22.12;74.67871;932.4561;;;;
2022/06/24 13:48:34;;;;;;;2.6;1.7;;;;;;;22.36;73.76953;932.5226;;;;
2022/06/24 13:52:10;;;;;;;5.2;1.9;;;;;;;21.68;74.3125;932.4321;;;;
2022/06/24 13:54:19;;;;;;;2.2;1.5;;;;;;;21.66;75.87891;932.3883;;;;
2022/06/24 13:56:45;;;;;;;3.3;1.6;;;;;;;21.48;75.47363;932.4168;;;;
2022/06/24 13:59:14;;;;;;;3.9;1.9;;;;;;;21.31;74.75195;932.4526;;;;
2022/06/24 14:01:42;;;;;;;3.2;1.8;;;;;;;21.55;74.6416;932.4666;;;;
2022/06/24 14:04:11;;;;;;;3.8;1.6;;;;;;;22.06;73.33105;932.3592;;;;
2022/06/24 14:06:41;;;;;;;3.9;1.9;;;;;;;22.47;75.05469;932.2712;;;;
2022/06/24 14:09:12;;;;;;;3.5;1.9;;;;;;;22.16;78.03906;932.2392;;;;
2022/06/24 14:11:42;;;;;;;3.1;1.9;;;;;;;22.38;78.04199;932.2556;;;;
2022/06/24 14:14:12;;;;;;;3.4;2.2;;;;;;;22.41;76.32129;932.3209;;;;
2022/06/24 14:16:51;;;;;;;4.8;2.2;;;;;;;22.3;76.85449;932.2374;;;;
2022/06/24 14:19:27;;;;;;;3.5;2.1;;;;;;;22.04;74.54785;932.1052;;;;
2022/06/24 14:21:56;;;;;;;3.9;2.4;;;;;;;21.79;76.67383;931.9426;;;;
2022/06/24 14:24:36;;;;;;;3.3;2.1;;;;;;;21.88;78.41016;931.9313;;;;
2022/06/24 14:26:52;;;;;;;4.1;2.1;;;;;;;21.84;76.36523;932.0122;;;;
2022/06/24 14:29:17;;;;;;;4.7;2.1;;;;;;;22.04;75.66113;932.0987;;;;
2022/06/24 14:31:42;;;;;;;3.6;1.7;;;;;;;21.94;72.50488;932.1398;;;;
2022/06/24 14:34:11;;;;;;;5.7;2.1;;;;;;;22.13;72.72168;932.0502;;;;
2022/06/24 14:36:36;;;;;;;2.5;1.7;;;;;;;21.93;71.78711;932.0367;;;;
2022/06/24 14:41:37;;;;;;;4.2;2;;;;;;;21.03;74.07324;932.3542;;;;
2022/06/24 14:44:05;;;;;;;2.8;2;;;;;;;20.98;76.5332;932.2798;;;;
2022/06/24 14:46:35;;;;;;;2.5;1.9;;;;;;;20.93;77.54102;932.1696;;;;
2022/06/24 14:49:00;;;;;;;4.3;2;;;;;;;20.93;78.12598;932.0132;;;;
2022/06/24 14:51:29;;;;;;;3.4;2;;;;;;;21.11;79.02344;931.9211;;;;